createdAt,value
2022-09-02T00:01:01.796Z,3.35
2022-09-02T00:03:31.477Z,3.47
2022-09-02T00:06:00.296Z,3.13
2022-09-02T00:08:28.835Z,2.75
2022-09-02T00:10:57.286Z,3.47
2022-09-02T00:13:26.252Z,2.70
2022-09-02T00:15:54.456Z,2.92
2022-09-02T00:18:27.336Z,2.85
2022-09-02T00:20:57.108Z,3.22
2022-09-02T00:23:27.224Z,2.97
2022-09-02T00:25:55.881Z,3.00
2022-09-02T00:28:24.321Z,3.30
2022-09-02T00:30:52.901Z,3.28
2022-09-02T00:33:21.340Z,3.13
2022-09-02T00:35:52.537Z,2.83
2022-09-02T00:38:20.938Z,2.58
2022-09-02T00:40:51.441Z,2.65
2022-09-02T00:43:28.492Z,3.22
2022-09-02T00:45:56.968Z,2.75
2022-09-02T00:48:25.407Z,2.90
2022-09-02T00:50:55.493Z,2.83
2022-09-02T00:53:25.412Z,2.70
2022-09-02T00:55:54.085Z,2.60
2022-09-02T00:58:25.568Z,3.00
2022-09-02T01:00:57.925Z,2.40
2022-09-02T01:03:28.953Z,2.40
2022-09-02T01:06:01.117Z,2.38
2022-09-02T01:08:35.976Z,2.60
2022-09-02T01:11:06.678Z,2.60
2022-09-02T01:13:39.073Z,2.63
2022-09-02T01:16:13.328Z,2.60
2022-09-02T01:18:44.315Z,2.28
2022-09-02T01:21:14.135Z,2.03
2022-09-02T01:23:43.837Z,2.35
2022-09-02T01:26:12.461Z,2.47
2022-09-02T01:28:40.957Z,2.00
2022-09-02T01:31:09.368Z,2.38
2022-09-02T01:33:37.990Z,2.05
2022-09-02T01:36:08.246Z,2.10
2022-09-02T01:38:36.805Z,2.80
2022-09-02T01:41:07.156Z,2.60
2022-09-02T01:43:36.138Z,2.67
2022-09-02T01:46:04.535Z,2.60
2022-09-02T01:48:33.430Z,2.28
2022-09-02T01:51:04.690Z,2.50
2022-09-02T01:53:33.772Z,2.65
2022-09-02T01:56:02.368Z,2.50
2022-09-02T01:58:36.193Z,2.90
2022-09-02T02:01:05.139Z,2.40
2022-09-02T02:03:34.014Z,2.58
2022-09-02T02:06:02.810Z,1.98
2022-09-02T02:08:31.274Z,2.38
2022-09-02T02:11:01.842Z,2.17
2022-09-02T02:13:32.271Z,2.42
2022-09-02T02:16:02.479Z,2.20
2022-09-02T02:18:31.087Z,2.42
2022-09-02T02:21:00.884Z,2.53
2022-09-02T02:23:29.685Z,2.38
2022-09-02T02:25:58.040Z,2.35
2022-09-02T02:28:26.520Z,2.42
2022-09-02T02:30:55.173Z,2.10
2022-09-02T02:33:30.470Z,2.25
2022-09-02T02:36:05.751Z,2.78
2022-09-02T02:38:35.864Z,2.65
2022-09-02T02:41:06.402Z,2.50
2022-09-02T02:43:36.092Z,2.40
2022-09-02T02:46:06.157Z,2.17
2022-09-02T02:48:36.976Z,2.63
2022-09-02T02:51:07.012Z,2.25
2022-09-02T02:53:37.113Z,2.40
2022-09-02T02:56:06.527Z,2.70
2022-09-02T02:58:35.034Z,2.30
2022-09-02T03:01:04.275Z,2.13
2022-09-02T03:03:32.745Z,2.03
2022-09-02T03:06:03.669Z,2.22
2022-09-02T03:08:35.341Z,1.90
2022-09-02T03:11:07.086Z,2.38
2022-09-02T03:16:08.858Z,2.15
2022-09-02T03:18:37.251Z,2.50
2022-09-02T03:21:10.338Z,2.45
2022-09-02T03:23:39.106Z,2.47
2022-09-02T03:26:12.042Z,2.35
2022-09-02T03:28:41.575Z,2.38
2022-09-02T03:31:16.012Z,2.20
2022-09-02T03:33:44.610Z,2.00
2022-09-02T03:36:27.395Z,1.92
2022-09-02T03:38:58.026Z,2.17
2022-09-02T03:41:26.931Z,2.33
2022-09-02T03:43:57.640Z,2.00
2022-09-02T03:46:26.397Z,2.00
2022-09-02T03:48:55.440Z,2.50
2022-09-02T03:51:26.958Z,2.47
2022-09-02T03:53:55.902Z,2.10
2022-09-02T03:56:25.670Z,2.38
2022-09-02T03:58:54.505Z,2.47
2022-09-02T04:01:31.726Z,2.58
2022-09-02T04:04:06.529Z,2.17
2022-09-02T04:06:38.164Z,2.13
2022-09-02T04:09:07.555Z,2.35
2022-09-02T04:11:37.254Z,2.35
2022-09-02T04:14:06.262Z,2.50
2022-09-02T04:16:35.709Z,2.20
2022-09-02T04:19:09.576Z,2.95
2022-09-02T04:21:42.042Z,2.53
2022-09-02T04:24:12.622Z,2.47
2022-09-02T04:26:45.488Z,2.30
2022-09-02T04:29:17.060Z,2.58
2022-09-02T04:31:49.650Z,2.58
2022-09-02T04:34:18.143Z,2.55
2022-09-02T04:36:49.754Z,2.60
2022-09-02T04:39:19.887Z,1.98
2022-09-02T04:41:48.400Z,2.22
2022-09-02T04:44:16.918Z,2.22
2022-09-02T04:46:50.442Z,2.85
2022-09-02T04:49:21.409Z,1.98
2022-09-02T04:51:55.582Z,2.53
2022-09-02T04:54:25.562Z,2.38
2022-09-02T04:56:55.645Z,2.20
2022-09-02T04:59:25.758Z,2.10
2022-09-02T05:02:08.818Z,2.25
2022-09-02T05:04:38.040Z,2.10
2022-09-02T05:07:13.178Z,2.30
2022-09-02T05:09:45.815Z,2.47
2022-09-02T05:12:15.220Z,2.42
2022-09-02T05:14:54.620Z,2.13
2022-09-02T05:17:26.548Z,2.08
2022-09-02T05:19:56.163Z,2.03
2022-09-02T05:22:29.370Z,2.30
2022-09-02T05:24:59.568Z,1.80
2022-09-02T05:27:30.486Z,1.95
2022-09-02T05:29:59.618Z,2.00
2022-09-02T05:32:34.360Z,1.63
2022-09-02T05:35:05.908Z,1.65
2022-09-02T05:37:37.834Z,1.70
2022-09-02T05:40:10.793Z,1.98
2022-09-02T05:42:43.536Z,1.80
2022-09-02T05:45:16.452Z,1.70
2022-09-02T05:47:45.458Z,1.60
2022-09-02T05:50:15.366Z,1.63
2022-09-02T05:52:51.092Z,2.10
2022-09-02T05:55:21.120Z,1.60
2022-09-02T05:57:50.541Z,1.50
2022-09-02T06:00:19.215Z,1.88
2022-09-02T06:02:56.909Z,1.80
2022-09-02T06:05:29.948Z,1.88
2022-09-02T06:08:08.540Z,1.50
2022-09-02T06:10:43.647Z,1.58
2022-09-02T06:13:22.730Z,2.00
2022-09-02T06:15:54.180Z,1.70
2022-09-02T06:18:26.786Z,1.65
2022-09-02T06:20:57.629Z,1.67
2022-09-02T06:23:34.608Z,1.55
2022-09-02T06:26:04.061Z,1.60
2022-09-02T06:28:32.946Z,1.60
2022-09-02T06:31:07.187Z,1.50
2022-09-02T06:33:35.567Z,1.90
2022-09-02T06:36:07.772Z,1.58
2022-09-02T06:38:45.206Z,1.73
2022-09-02T06:41:15.997Z,1.25
2022-09-02T06:43:45.509Z,1.30
2022-09-02T06:46:28.251Z,1.50
2022-09-02T06:48:59.451Z,1.08
2022-09-02T06:51:31.343Z,1.50
2022-09-02T06:54:03.452Z,1.50
2022-09-02T06:56:35.789Z,1.42
2022-09-02T06:59:06.179Z,0.90
2022-09-02T07:01:44.746Z,1.17
2022-09-02T07:04:40.209Z,1.30
2022-09-02T07:07:12.042Z,1.10
2022-09-02T07:09:48.116Z,1.08
2022-09-02T07:12:19.739Z,1.10
2022-09-02T07:15:02.411Z,1.10
2022-09-02T07:17:36.181Z,1.27
2022-09-02T07:20:07.165Z,1.10
2022-09-02T07:22:46.529Z,1.10
2022-09-02T07:25:19.880Z,0.90
2022-09-02T07:27:52.287Z,0.90
2022-09-02T07:30:21.323Z,0.90
2022-09-02T07:32:53.411Z,0.93
2022-09-02T07:35:25.007Z,0.93
2022-09-02T07:37:54.027Z,0.85
2022-09-02T07:40:24.768Z,0.82
2022-09-02T07:42:53.924Z,1.00
2022-09-02T07:45:23.871Z,0.70
2022-09-02T07:47:52.579Z,0.90
2022-09-02T07:50:22.334Z,0.75
2022-09-02T07:52:54.800Z,0.73
2022-09-02T07:55:26.412Z,0.75
2022-09-02T07:57:55.823Z,0.65
2022-09-02T08:00:27.667Z,0.80
2022-09-02T08:03:00.883Z,0.77
2022-09-02T08:05:35.375Z,0.70
2022-09-02T08:08:04.671Z,0.90
2022-09-02T08:10:34.969Z,0.70
2022-09-02T08:13:06.194Z,0.95
2022-09-02T08:15:36.443Z,0.70
2022-09-02T08:18:06.121Z,0.85
2022-09-02T08:20:35.624Z,0.82
2022-09-02T08:23:11.157Z,0.80
2022-09-02T08:25:43.231Z,0.60
2022-09-02T08:28:12.139Z,0.95
2022-09-02T08:30:41.149Z,0.73
2022-09-02T08:33:09.370Z,0.93
2022-09-02T08:35:37.695Z,1.00
2022-09-02T08:38:06.183Z,0.80
2022-09-02T08:40:38.798Z,0.70
2022-09-02T08:43:22.110Z,0.40
2022-09-02T08:45:51.104Z,0.52
2022-09-02T08:48:23.148Z,0.60
2022-09-02T08:50:57.727Z,0.50
2022-09-02T08:53:33.685Z,0.70
2022-09-02T08:56:04.599Z,0.77
2022-09-02T08:58:40.899Z,0.47
2022-09-02T09:01:15.727Z,0.70
2022-09-02T09:04:00.386Z,0.68
2022-09-02T09:06:39.588Z,0.50
2022-09-02T09:09:14.827Z,1.08
2022-09-02T09:11:50.395Z,0.50
2022-09-02T09:14:30.859Z,0.50
2022-09-02T09:17:01.281Z,0.52
2022-09-02T09:19:39.676Z,0.30
2022-09-02T09:22:08.180Z,0.40
2022-09-02T09:24:39.697Z,0.60
2022-09-02T09:27:13.905Z,0.40
2022-09-02T09:29:43.621Z,0.65
2022-09-02T09:32:21.641Z,0.47
2022-09-02T09:35:07.230Z,0.43
2022-09-02T09:37:39.634Z,0.57
2022-09-02T09:40:28.284Z,0.50
2022-09-02T09:42:59.072Z,0.60
2022-09-02T09:45:32.701Z,0.47
2022-09-02T09:48:28.019Z,0.47
2022-09-02T09:51:14.209Z,0.70
2022-09-02T09:53:42.703Z,0.70
2022-09-02T09:56:32.376Z,0.50
2022-09-02T09:59:10.646Z,0.60
2022-09-02T10:01:40.593Z,0.43
2022-09-02T10:04:42.178Z,0.50
2022-09-02T10:07:00.504Z,0.50
2022-09-02T10:09:33.890Z,0.60
2022-09-02T10:12:04.032Z,0.40
2022-09-02T10:14:36.634Z,0.30
2022-09-02T10:17:28.617Z,0.50
2022-09-02T10:20:04.786Z,0.40
2022-09-02T10:22:59.238Z,0.43
2022-09-02T10:25:35.240Z,0.45
2022-09-02T10:28:14.914Z,0.82
2022-09-02T10:30:53.931Z,0.50
2022-09-02T10:33:31.268Z,0.63
2022-09-02T10:36:07.513Z,0.60
2022-09-02T10:38:41.782Z,0.50
2022-09-02T10:41:22.246Z,0.65
2022-09-02T10:44:14.730Z,0.50
2022-09-02T10:46:51.435Z,0.47
2022-09-02T10:49:34.609Z,0.70
2022-09-02T10:52:11.530Z,0.40
2022-09-02T10:54:51.863Z,0.50
2022-09-02T10:57:24.907Z,0.50
2022-09-02T11:00:02.487Z,0.40
2022-09-02T11:02:38.714Z,0.30
2022-09-02T11:05:14.014Z,0.68
2022-09-02T11:07:47.366Z,0.30
2022-09-02T11:10:20.935Z,0.40
2022-09-02T11:12:56.158Z,0.60
2022-09-02T11:15:35.839Z,0.40
2022-09-02T11:18:10.525Z,0.60
2022-09-02T11:20:48.397Z,0.47
2022-09-02T11:23:24.333Z,0.40
2022-09-02T11:25:58.620Z,0.30
2022-09-02T11:28:34.532Z,0.32
2022-09-02T11:31:08.936Z,0.40
2022-09-02T11:33:48.304Z,0.40
2022-09-02T11:36:18.578Z,0.43
2022-09-02T11:38:52.668Z,0.40
2022-09-02T11:41:34.737Z,0.30
2022-09-02T11:44:20.496Z,0.30
2022-09-02T11:47:07.995Z,0.40
2022-09-02T11:50:10.014Z,0.40
2022-09-02T11:52:58.231Z,0.65
2022-09-02T11:55:34.824Z,0.70
2022-09-02T11:58:03.704Z,0.43
2022-09-02T12:00:36.684Z,0.40
2022-09-02T12:03:46.937Z,0.60
2022-09-02T12:06:13.914Z,0.40
2022-09-02T12:09:03.909Z,0.30
2022-09-02T12:11:47.118Z,0.30
2022-09-02T12:15:08.144Z,0.38
2022-09-02T12:17:46.426Z,0.40
2022-09-02T12:20:51.367Z,0.30
2022-09-02T12:23:57.776Z,0.40
2022-09-02T12:26:30.069Z,0.50
2022-09-02T12:29:13.791Z,0.38
2022-09-02T12:31:44.158Z,0.30
2022-09-02T12:34:53.227Z,0.50
2022-09-02T12:37:54.528Z,0.43
2022-09-02T12:40:35.104Z,0.38
2022-09-02T12:43:16.827Z,0.50
2022-09-02T12:45:47.151Z,0.40
2022-09-02T12:48:30.334Z,0.60
2022-09-02T12:51:06.961Z,0.35
2022-09-02T12:53:41.187Z,0.40
2022-09-02T12:56:21.296Z,0.40
2022-09-02T12:58:54.784Z,0.43
2022-09-02T13:01:38.772Z,0.30
2022-09-02T13:04:26.434Z,0.30
2022-09-02T13:07:38.443Z,0.32
2022-09-02T13:10:28.562Z,0.50
2022-09-02T13:13:21.167Z,0.50
2022-09-02T13:16:17.368Z,0.35
2022-09-02T13:19:21.271Z,0.40
2022-09-02T13:22:23.991Z,0.60
2022-09-02T13:25:25.671Z,0.40
2022-09-02T13:28:28.351Z,0.40
2022-09-02T13:31:08.519Z,0.65
2022-09-02T13:33:41.903Z,0.30
2022-09-02T13:36:11.573Z,0.40
2022-09-02T13:38:40.045Z,0.20
2022-09-02T13:41:09.428Z,0.20
2022-09-02T13:43:37.830Z,1.17
2022-09-02T13:46:07.711Z,0.40
2022-09-02T13:48:40.937Z,0.20
2022-09-02T13:51:14.522Z,0.20
2022-09-02T13:54:18.575Z,0.32
2022-09-02T13:56:36.338Z,0.20
2022-09-02T13:59:04.556Z,0.30
2022-09-02T14:01:37.194Z,0.20
2022-09-02T14:04:11.399Z,0.20
2022-09-02T14:06:43.430Z,0.30
2022-09-02T14:09:21.415Z,0.20
2022-09-02T14:11:51.239Z,0.20
2022-09-02T14:14:23.547Z,0.30
2022-09-02T14:16:53.696Z,0.30
2022-09-02T14:19:26.651Z,1.08
2022-09-02T14:21:57.399Z,0.22
2022-09-02T14:24:27.360Z,0.32
2022-09-02T14:26:57.359Z,0.40
2022-09-02T14:29:27.421Z,0.30
2022-09-02T14:32:13.703Z,0.20
2022-09-02T14:34:43.212Z,0.20
2022-09-02T14:37:24.421Z,0.40
2022-09-02T14:39:54.351Z,0.35
2022-09-02T14:42:22.956Z,0.40
2022-09-02T14:44:51.312Z,0.20
2022-09-02T14:47:24.373Z,0.35
2022-09-02T14:49:55.481Z,0.28
2022-09-02T14:52:27.492Z,0.40
2022-09-02T14:54:57.257Z,0.50
2022-09-02T14:57:28.613Z,0.45
2022-09-02T15:00:02.607Z,0.40
2022-09-02T15:02:34.820Z,0.40
2022-09-02T15:05:05.116Z,0.30
2022-09-02T15:07:33.833Z,0.30
2022-09-02T15:10:02.155Z,0.30
2022-09-02T15:12:34.668Z,0.30
2022-09-02T15:15:02.976Z,0.30
2022-09-02T15:17:32.563Z,0.40
2022-09-02T15:20:01.096Z,0.30
2022-09-02T15:22:30.153Z,0.40
2022-09-02T15:24:58.428Z,0.25
2022-09-02T15:27:26.850Z,0.40
2022-09-02T15:29:55.150Z,0.43
2022-09-02T15:32:23.448Z,0.50
2022-09-02T15:34:53.174Z,0.43
2022-09-02T15:37:21.502Z,0.32
2022-09-02T15:39:51.742Z,0.35
2022-09-02T15:42:20.121Z,0.32
2022-09-02T15:44:48.399Z,0.32
2022-09-02T15:47:16.676Z,0.40
2022-09-02T15:49:44.771Z,0.28
2022-09-02T15:52:14.352Z,0.40
2022-09-02T15:54:42.669Z,0.45
2022-09-02T15:57:11.667Z,0.45
2022-09-02T15:59:39.983Z,0.40
2022-09-02T16:02:08.284Z,0.30
2022-09-02T16:04:36.488Z,0.35
2022-09-02T16:07:04.898Z,0.50
2022-09-02T16:09:34.729Z,0.50
2022-09-02T16:12:03.338Z,0.40
2022-09-02T16:14:31.614Z,0.40
2022-09-02T16:16:59.792Z,0.40
2022-09-02T16:19:30.379Z,0.50
2022-09-02T16:21:59.216Z,0.68
2022-09-02T16:24:27.587Z,0.50
2022-09-02T16:26:57.305Z,0.43
2022-09-02T16:29:28.281Z,0.22
2022-09-02T16:34:46.951Z,0.57
2022-09-02T16:37:15.217Z,0.52
2022-09-02T16:39:43.958Z,0.70
2022-09-02T16:42:13.748Z,0.70
2022-09-02T16:44:42.092Z,0.57
2022-09-02T16:47:12.920Z,0.50
2022-09-02T16:49:42.347Z,0.50
2022-09-02T16:52:10.709Z,0.70
2022-09-02T16:54:41.019Z,0.55
2022-09-02T16:57:09.525Z,0.40
2022-09-02T16:59:39.348Z,0.50
2022-09-02T17:02:08.016Z,0.52
2022-09-02T17:04:36.578Z,0.57
2022-09-02T17:07:05.151Z,0.60
2022-09-02T17:09:33.236Z,0.68
2022-09-02T17:12:01.568Z,0.88
2022-09-02T17:14:29.686Z,0.52
2022-09-02T17:16:59.474Z,0.77
2022-09-02T17:19:32.061Z,0.55
2022-09-02T17:22:01.406Z,0.68
2022-09-02T17:24:31.007Z,0.50
2022-09-02T17:27:00.543Z,0.75
2022-09-02T17:32:20.565Z,0.80
2022-09-02T17:34:51.223Z,0.73
2022-09-02T17:37:19.904Z,0.70
2022-09-02T17:39:49.116Z,0.50
2022-09-02T17:42:16.724Z,0.80
2022-09-02T17:44:45.035Z,0.50
2022-09-02T17:47:15.937Z,0.60
2022-09-02T17:49:45.755Z,0.85
2022-09-02T17:52:15.936Z,0.73
2022-09-02T17:54:44.893Z,1.00
2022-09-02T17:57:31.051Z,0.80
2022-09-02T18:00:10.484Z,0.77
2022-09-02T18:03:14.582Z,1.00
2022-09-02T18:06:10.384Z,1.10
2022-09-02T18:08:49.453Z,0.90
2022-09-02T18:11:18.059Z,0.90
2022-09-02T18:13:57.519Z,0.95
2022-09-02T18:16:32.411Z,0.88
2022-09-02T18:19:13.205Z,1.50
2022-09-02T18:22:05.227Z,0.90
2022-09-02T18:25:08.620Z,0.90
2022-09-02T18:27:52.443Z,0.90
2022-09-02T18:30:23.661Z,0.93
2022-09-02T18:33:12.055Z,1.23
2022-09-02T18:35:50.644Z,1.00
2022-09-02T18:38:28.475Z,1.25
2022-09-02T18:41:12.123Z,1.00
2022-09-02T18:43:49.124Z,1.00
2022-09-02T18:46:20.592Z,1.00
2022-09-02T18:48:53.513Z,1.23
2022-09-02T18:51:31.407Z,1.38
2022-09-02T18:54:13.020Z,1.00
2022-09-02T18:56:48.424Z,1.20
2022-09-02T18:59:22.799Z,1.13
2022-09-02T19:02:01.753Z,1.20
2022-09-02T19:04:32.575Z,1.10
2022-09-02T19:07:15.280Z,0.90
2022-09-02T19:09:45.004Z,1.08
2022-09-02T19:12:14.507Z,1.15
2022-09-02T19:14:43.117Z,0.93
2022-09-02T19:17:12.648Z,1.30
2022-09-02T19:19:41.231Z,1.10
2022-09-02T19:22:11.932Z,1.00
2022-09-02T19:24:46.377Z,0.98
2022-09-02T19:27:18.472Z,0.82
2022-09-02T19:29:51.372Z,1.00
2022-09-02T19:32:26.139Z,0.80
2022-09-02T19:34:54.709Z,1.58
2022-09-02T19:37:23.821Z,1.00
2022-09-02T19:39:54.183Z,1.02
2022-09-02T19:42:24.150Z,0.93
2022-09-02T19:44:52.632Z,1.30
2022-09-02T19:48:05.529Z,1.10
2022-09-02T19:50:12.064Z,1.13
2022-09-02T19:52:42.980Z,1.10
2022-09-02T19:55:15.181Z,1.10
2022-09-02T19:57:43.901Z,1.40
2022-09-02T20:00:14.009Z,1.38
2022-09-02T20:02:42.525Z,1.40
2022-09-02T20:05:12.322Z,1.33
2022-09-02T20:07:40.825Z,1.20
2022-09-02T20:10:10.643Z,1.13
2022-09-02T20:12:40.360Z,1.00
2022-09-02T20:15:09.870Z,1.23
2022-09-02T20:17:38.186Z,1.30
2022-09-02T20:20:12.594Z,1.60
2022-09-02T20:22:41.096Z,1.27
2022-09-02T20:25:09.612Z,1.48
2022-09-02T20:27:51.592Z,1.20
2022-09-02T20:30:20.817Z,0.95
2022-09-02T20:32:59.743Z,1.08
2022-09-02T20:35:42.264Z,1.10
2022-09-02T20:38:25.966Z,1.25
2022-09-02T20:41:04.778Z,1.30
2022-09-02T20:43:49.994Z,1.10
2022-09-02T20:46:30.521Z,1.35
2022-09-02T20:49:16.213Z,1.33
2022-09-02T20:51:54.823Z,1.63
2022-09-02T20:54:37.453Z,1.38
2022-09-02T20:57:20.506Z,1.50
2022-09-02T21:00:01.024Z,1.10
2022-09-02T21:02:33.238Z,1.40
2022-09-02T21:05:05.158Z,1.58
2022-09-02T21:07:36.695Z,1.30
2022-09-02T21:10:09.445Z,1.27
2022-09-02T21:12:43.115Z,1.40
2022-09-02T21:15:25.452Z,1.60
2022-09-02T21:18:00.448Z,1.52
2022-09-02T21:20:38.136Z,1.40
2022-09-02T21:23:12.558Z,1.30
2022-09-02T21:25:50.575Z,1.77
2022-09-02T21:28:24.972Z,1.55
2022-09-02T21:30:59.570Z,1.60
2022-09-02T21:33:32.488Z,1.70
2022-09-02T21:36:02.475Z,1.50
2022-09-02T21:38:37.014Z,1.50
2022-09-02T21:41:18.724Z,2.03
2022-09-02T21:43:57.087Z,1.73
2022-09-02T21:46:34.518Z,2.00
2022-09-02T21:49:07.696Z,2.03
2022-09-02T21:51:40.100Z,1.75
2022-09-02T21:54:27.102Z,1.83
2022-09-02T21:57:14.316Z,1.50
2022-09-02T21:59:56.420Z,1.80
2022-09-02T22:02:33.015Z,1.80
2022-09-02T22:05:06.844Z,1.50
2022-09-02T22:07:39.161Z,1.48
2022-09-02T22:10:13.691Z,1.58
2022-09-02T22:12:48.845Z,1.50
2022-09-02T22:15:28.371Z,1.73
2022-09-02T22:18:10.870Z,1.77
2022-09-02T22:20:43.823Z,1.83
2022-09-02T22:23:25.736Z,2.20
2022-09-02T22:25:55.917Z,1.98
2022-09-02T22:28:31.333Z,1.80
2022-09-02T22:31:05.689Z,1.52
2022-09-02T22:33:49.015Z,1.70
2022-09-02T22:36:29.634Z,1.70
2022-09-02T22:39:01.397Z,1.80
2022-09-02T22:41:39.731Z,1.60
2022-09-02T22:44:10.525Z,1.40
2022-09-02T22:47:04.126Z,2.05
2022-09-02T22:49:56.067Z,2.00
2022-09-02T22:52:49.829Z,2.05
2022-09-02T22:55:39.480Z,1.50
2022-09-02T22:58:21.370Z,2.85
2022-09-02T23:00:54.993Z,1.95
2022-09-02T23:03:30.035Z,1.80
2022-09-02T23:06:11.503Z,2.00
2022-09-02T23:08:43.881Z,2.00
2022-09-02T23:11:18.186Z,2.25
2022-09-02T23:13:56.843Z,2.75
2022-09-02T23:16:35.166Z,2.13
2022-09-02T23:19:12.865Z,2.25
2022-09-02T23:21:54.316Z,2.10
2022-09-02T23:24:32.965Z,2.30
2022-09-02T23:27:07.074Z,2.70
2022-09-02T23:29:35.896Z,2.35
2022-09-02T23:32:24.681Z,2.33
2022-09-02T23:35:12.630Z,2.20
2022-09-02T23:37:54.698Z,2.08
2022-09-02T23:40:29.922Z,1.67
2022-09-02T23:42:59.478Z,2.30
2022-09-02T23:45:32.876Z,1.95
2022-09-02T23:48:17.283Z,2.53
2022-09-02T23:50:56.389Z,2.28
2022-09-02T23:53:29.884Z,2.22
2022-09-02T23:56:10.020Z,2.58
2022-09-02T23:58:57.464Z,2.15
